sensor_id;sensor_type;location;lat;lon;timestamp;pressure;altitude;pressure_sealevel;temperature;humidity
9141;BME280;46330;50.822;7.126;2023-03-31T00:01:19;99950.13;;;11.21;90.98
9141;BME280;46330;50.822;7.126;2023-03-31T00:03:47;99945.06;;;11.16;91.35
9141;BME280;46330;50.822;7.126;2023-03-31T00:06:15;99944.84;;;11.22;91.60
9141;BME280;46330;50.822;7.126;2023-03-31T00:08:46;99947.38;;;11.25;91.72
9141;BME280;46330;50.822;7.126;2023-03-31T00:11:18;99946.41;;;11.28;92.12
9141;BME280;46330;50.822;7.126;2023-03-31T00:13:47;99932.56;;;11.24;92.52
9141;BME280;46330;50.822;7.126;2023-03-31T00:16:15;99937.09;;;11.19;92.75
9141;BME280;46330;50.822;7.126;2023-03-31T00:18:43;99933.31;;;11.28;92.88
9141;BME280;46330;50.822;7.126;2023-03-31T00:21:15;99927.09;;;11.30;92.51
9141;BME280;46330;50.822;7.126;2023-03-31T00:23:52;99917.34;;;11.36;93.41
9141;BME280;46330;50.822;7.126;2023-03-31T00:26:21;99914.84;;;11.32;93.05
9141;BME280;46330;50.822;7.126;2023-03-31T00:28:51;99916.53;;;11.33;92.84
9141;BME280;46330;50.822;7.126;2023-03-31T00:31:20;99899.34;;;11.26;92.81
9141;BME280;46330;50.822;7.126;2023-03-31T00:33:49;99907.34;;;11.22;92.90
9141;BME280;46330;50.822;7.126;2023-03-31T00:36:17;99896.94;;;11.20;93.02
9141;BME280;46330;50.822;7.126;2023-03-31T00:38:52;99900.56;;;11.16;93.73
9141;BME280;46330;50.822;7.126;2023-03-31T00:41:20;99896.19;;;11.17;93.24
9141;BME280;46330;50.822;7.126;2023-03-31T00:44:07;99887.50;;;11.15;93.52
9141;BME280;46330;50.822;7.126;2023-03-31T00:46:39;99868.56;;;11.08;94.56
9141;BME280;46330;50.822;7.126;2023-03-31T00:49:13;99860.78;;;11.05;95.13
9141;BME280;46330;50.822;7.126;2023-03-31T00:51:44;99854.94;;;10.99;95.57
9141;BME280;46330;50.822;7.126;2023-03-31T00:54:12;99850.59;;;10.98;95.89
9141;BME280;46330;50.822;7.126;2023-03-31T00:56:43;99853.44;;;10.90;96.56
9141;BME280;46330;50.822;7.126;2023-03-31T00:59:15;99844.94;;;10.84;96.92
9141;BME280;46330;50.822;7.126;2023-03-31T01:01:45;99835.50;;;10.79;96.57
9141;BME280;46330;50.822;7.126;2023-03-31T01:04:17;99830.41;;;10.75;97.30
9141;BME280;46330;50.822;7.126;2023-03-31T01:06:54;99820.97;;;10.71;97.47
9141;BME280;46330;50.822;7.126;2023-03-31T01:09:28;99817.50;;;10.70;97.57
9141;BME280;46330;50.822;7.126;2023-03-31T01:12:02;99808.84;;;10.68;97.67
9141;BME280;46330;50.822;7.126;2023-03-31T01:14:31;99808.06;;;10.65;98.33
9141;BME280;46330;50.822;7.126;2023-03-31T01:16:59;99802.31;;;10.55;98.18
9141;BME280;46330;50.822;7.126;2023-03-31T01:19:38;99794.47;;;10.55;98.45
9141;BME280;46330;50.822;7.126;2023-03-31T01:22:32;99782.31;;;10.54;98.55
9141;BME280;46330;50.822;7.126;2023-03-31T01:25:33;99785.78;;;10.55;99.05
9141;BME280;46330;50.822;7.126;2023-03-31T01:28:15;99776.31;;;10.51;99.18
9141;BME280;46330;50.822;7.126;2023-03-31T01:31:32;99774.38;;;10.56;98.54
9141;BME280;46330;50.822;7.126;2023-03-31T01:43:32;99760.28;;;10.61;98.84
9141;BME280;46330;50.822;7.126;2023-03-31T01:46:09;99759.34;;;10.62;98.99
9141;BME280;46330;50.822;7.126;2023-03-31T01:48:46;99758.50;;;10.62;98.70
9141;BME280;46330;50.822;7.126;2023-03-31T01:51:21;99754.94;;;10.64;99.00
9141;BME280;46330;50.822;7.126;2023-03-31T01:54:00;99739.19;;;10.66;98.80
9141;BME280;46330;50.822;7.126;2023-03-31T01:56:34;99744.28;;;10.70;98.65
9141;BME280;46330;50.822;7.126;2023-03-31T01:59:10;99744.94;;;10.77;98.24
9141;BME280;46330;50.822;7.126;2023-03-31T02:01:41;99749.19;;;10.79;98.91
9141;BME280;46330;50.822;7.126;2023-03-31T02:04:16;99745.53;;;10.84;99.01
9141;BME280;46330;50.822;7.126;2023-03-31T02:06:50;99737.66;;;10.85;98.96
9141;BME280;46330;50.822;7.126;2023-03-31T02:09:24;99737.53;;;10.88;100.00
9141;BME280;46330;50.822;7.126;2023-03-31T02:11:56;99724.44;;;10.90;100.00
9141;BME280;46330;50.822;7.126;2023-03-31T02:14:29;99717.47;;;10.89;100.00
9141;BME280;46330;50.822;7.126;2023-03-31T02:16:58;99716.66;;;10.87;100.00
9141;BME280;46330;50.822;7.126;2023-03-31T02:19:32;99706.38;;;10.82;100.00
9141;BME280;46330;50.822;7.126;2023-03-31T02:22:04;99695.03;;;10.82;100.00
9141;BME280;46330;50.822;7.126;2023-03-31T02:24:35;99687.16;;;10.83;100.00
9141;BME280;46330;50.822;7.126;2023-03-31T02:27:06;99676.69;;;10.83;100.00
9141;BME280;46330;50.822;7.126;2023-03-31T02:29:37;99669.69;;;10.84;100.00
9141;BME280;46330;50.822;7.126;2023-03-31T02:32:11;99655.06;;;10.78;100.00
9141;BME280;46330;50.822;7.126;2023-03-31T02:34:41;99641.97;;;10.78;100.00
9141;BME280;46330;50.822;7.126;2023-03-31T02:37:09;99636.94;;;10.73;100.00
9141;BME280;46330;50.822;7.126;2023-03-31T02:39:40;99626.69;;;10.67;100.00
9141;BME280;46330;50.822;7.126;2023-03-31T02:42:10;99625.09;;;10.63;100.00
9141;BME280;46330;50.822;7.126;2023-03-31T02:44:40;99602.47;;;10.62;100.00
9141;BME280;46330;50.822;7.126;2023-03-31T02:47:10;99594.59;;;10.62;100.00
9141;BME280;46330;50.822;7.126;2023-03-31T02:49:41;99605.81;;;10.66;100.00
9141;BME280;46330;50.822;7.126;2023-03-31T02:52:25;99611.75;;;10.71;100.00
9141;BME280;46330;50.822;7.126;2023-03-31T02:55:16;99583.38;;;10.60;100.00
9141;BME280;46330;50.822;7.126;2023-03-31T02:58:10;99551.34;;;10.54;100.00
9141;BME280;46330;50.822;7.126;2023-03-31T03:00:54;99542.66;;;10.53;100.00
9141;BME280;46330;50.822;7.126;2023-03-31T03:03:37;99535.91;;;10.48;100.00
9141;BME280;46330;50.822;7.126;2023-03-31T03:06:17;99535.25;;;10.41;100.00
9141;BME280;46330;50.822;7.126;2023-03-31T03:09:20;99537.72;;;10.46;100.00
9141;BME280;46330;50.822;7.126;2023-03-31T03:12:05;99531.75;;;10.42;100.00
9141;BME280;46330;50.822;7.126;2023-03-31T03:14:40;99520.44;;;10.42;100.00
9141;BME280;46330;50.822;7.126;2023-03-31T03:17:15;99520.44;;;10.42;100.00
9141;BME280;46330;50.822;7.126;2023-03-31T03:19:50;99524.25;;;10.33;100.00
9141;BME280;46330;50.822;7.126;2023-03-31T03:22:18;99520.78;;;10.33;100.00
9141;BME280;46330;50.822;7.126;2023-03-31T03:24:46;99523.31;;;10.34;100.00
9141;BME280;46330;50.822;7.126;2023-03-31T03:27:14;99538.34;;;10.27;100.00
9141;BME280;46330;50.822;7.126;2023-03-31T03:29:42;99534.06;;;10.27;100.00
9141;BME280;46330;50.822;7.126;2023-03-31T03:32:11;99526.34;;;10.23;100.00
9141;BME280;46330;50.822;7.126;2023-03-31T03:34:39;99497.75;;;10.19;100.00
9141;BME280;46330;50.822;7.126;2023-03-31T03:37:07;99480.16;;;10.24;100.00
9141;BME280;46330;50.822;7.126;2023-03-31T03:39:35;99482.66;;;10.27;100.00
9141;BME280;46330;50.822;7.126;2023-03-31T03:42:03;99470.38;;;10.29;100.00
9141;BME280;46330;50.822;7.126;2023-03-31T03:44:31;99466.03;;;10.28;100.00
9141;BME280;46330;50.822;7.126;2023-03-31T03:46:59;99468.38;;;10.36;100.00
9141;BME280;46330;50.822;7.126;2023-03-31T03:49:28;99484.81;;;10.39;100.00
9141;BME280;46330;50.822;7.126;2023-03-31T03:51:56;99470.69;;;10.43;100.00
9141;BME280;46330;50.822;7.126;2023-03-31T03:54:24;99469.75;;;10.46;100.00
9141;BME280;46330;50.822;7.126;2023-03-31T03:56:52;99464.41;;;10.49;100.00
9141;BME280;46330;50.822;7.126;2023-03-31T03:59:20;99459.00;;;10.53;99.31
9141;BME280;46330;50.822;7.126;2023-03-31T04:01:48;99460.72;;;10.54;99.92
9141;BME280;46330;50.822;7.126;2023-03-31T04:04:17;99464.19;;;10.55;98.74
9141;BME280;46330;50.822;7.126;2023-03-31T04:06:47;99449.22;;;10.58;98.36
9141;BME280;46330;50.822;7.126;2023-03-31T04:09:14;99450.06;;;10.59;98.50
9141;BME280;46330;50.822;7.126;2023-03-31T04:11:42;99443.75;;;10.64;96.38
9141;BME280;46330;50.822;7.126;2023-03-31T04:14:10;99446.50;;;10.61;97.02
9141;BME280;46330;50.822;7.126;2023-03-31T04:16:38;99445.53;;;10.64;96.50
9141;BME280;46330;50.822;7.126;2023-03-31T04:19:06;99436.75;;;10.65;95.50
9141;BME280;46330;50.822;7.126;2023-03-31T04:21:37;99439.47;;;10.62;95.41
9141;BME280;46330;50.822;7.126;2023-03-31T04:24:12;99435.06;;;10.64;96.16
9141;BME280;46330;50.822;7.126;2023-03-31T04:26:41;99416.13;;;10.57;95.39
9141;BME280;46330;50.822;7.126;2023-03-31T04:29:10;99402.16;;;10.58;95.68
9141;BME280;46330;50.822;7.126;2023-03-31T04:31:41;99397.97;;;10.54;95.91
9141;BME280;46330;50.822;7.126;2023-03-31T04:34:11;99406.81;;;10.50;95.61
9141;BME280;46330;50.822;7.126;2023-03-31T04:36:39;99374.72;;;10.47;95.56
9141;BME280;46330;50.822;7.126;2023-03-31T04:39:15;99361.72;;;10.45;94.15
9141;BME280;46330;50.822;7.126;2023-03-31T04:41:43;99354.78;;;10.44;94.39
9141;BME280;46330;50.822;7.126;2023-03-31T04:44:11;99352.28;;;10.41;95.11
9141;BME280;46330;50.822;7.126;2023-03-31T04:46:39;99351.56;;;10.38;95.79
9141;BME280;46330;50.822;7.126;2023-03-31T04:49:07;99339.41;;;10.37;95.53
9141;BME280;46330;50.822;7.126;2023-03-31T04:51:35;99331.75;;;10.32;96.01
9141;BME280;46330;50.822;7.126;2023-03-31T04:54:03;99328.50;;;10.25;96.72
9141;BME280;46330;50.822;7.126;2023-03-31T04:56:32;99311.19;;;10.23;97.22
9141;BME280;46330;50.822;7.126;2023-03-31T04:59:00;99305.22;;;10.19;96.68
9141;BME280;46330;50.822;7.126;2023-03-31T05:01:29;99302.47;;;10.24;96.24
9141;BME280;46330;50.822;7.126;2023-03-31T05:03:59;99306.75;;;10.25;95.93
9141;BME280;46330;50.822;7.126;2023-03-31T05:06:27;99293.63;;;10.27;95.53
9141;BME280;46330;50.822;7.126;2023-03-31T05:08:55;99297.94;;;10.27;96.05
9141;BME280;46330;50.822;7.126;2023-03-31T05:11:23;99302.09;;;10.33;95.05
9141;BME280;46330;50.822;7.126;2023-03-31T05:13:52;99295.88;;;10.36;94.64
9141;BME280;46330;50.822;7.126;2023-03-31T05:16:20;99296.28;;;10.47;92.10
9141;BME280;46330;50.822;7.126;2023-03-31T05:18:48;99284.81;;;10.51;93.33
9141;BME280;46330;50.822;7.126;2023-03-31T05:21:18;99272.63;;;10.50;93.36
9141;BME280;46330;50.822;7.126;2023-03-31T05:23:47;99267.50;;;10.48;92.75
9141;BME280;46330;50.822;7.126;2023-03-31T05:26:15;99252.84;;;10.44;93.31
9141;BME280;46330;50.822;7.126;2023-03-31T05:28:43;99239.75;;;10.44;93.88
9141;BME280;46330;50.822;7.126;2023-03-31T05:31:12;99271.91;;;10.46;93.43
9141;BME280;46330;50.822;7.126;2023-03-31T05:33:40;99265.00;;;10.45;93.04
9141;BME280;46330;50.822;7.126;2023-03-31T05:36:09;99239.72;;;10.46;93.01
9141;BME280;46330;50.822;7.126;2023-03-31T05:38:39;99237.88;;;10.48;92.64
9141;BME280;46330;50.822;7.126;2023-03-31T05:41:07;99251.69;;;10.51;91.98
9141;BME280;46330;50.822;7.126;2023-03-31T05:43:36;99238.66;;;10.50;92.66
9141;BME280;46330;50.822;7.126;2023-03-31T05:46:04;99229.19;;;10.47;92.06
9141;BME280;46330;50.822;7.126;2023-03-31T05:48:35;99233.25;;;10.54;90.60
9141;BME280;46330;50.822;7.126;2023-03-31T05:51:03;99218.28;;;10.58;90.15
9141;BME280;46330;50.822;7.126;2023-03-31T05:53:31;99218.88;;;10.64;87.97
9141;BME280;46330;50.822;7.126;2023-03-31T05:56:01;99211.81;;;10.66;88.63
9141;BME280;46330;50.822;7.126;2023-03-31T05:58:30;99211.09;;;10.63;89.37
9141;BME280;46330;50.822;7.126;2023-03-31T06:01:02;99211.94;;;10.63;86.65
9141;BME280;46330;50.822;7.126;2023-03-31T06:03:36;99210.81;;;10.69;86.43
9141;BME280;46330;50.822;7.126;2023-03-31T06:06:06;99220.50;;;10.67;86.06
9141;BME280;46330;50.822;7.126;2023-03-31T06:08:35;99205.56;;;10.70;84.66
9141;BME280;46330;50.822;7.126;2023-03-31T06:11:04;99209.06;;;10.69;84.58
9141;BME280;46330;50.822;7.126;2023-03-31T06:13:33;99200.63;;;10.63;85.30
9141;BME280;46330;50.822;7.126;2023-03-31T06:16:01;99195.47;;;10.61;86.14
9141;BME280;46330;50.822;7.126;2023-03-31T06:18:30;99188.41;;;10.63;85.63
9141;BME280;46330;50.822;7.126;2023-03-31T06:21:00;99194.88;;;10.55;84.79
9141;BME280;46330;50.822;7.126;2023-03-31T06:23:29;99202.59;;;10.58;84.69
9141;BME280;46330;50.822;7.126;2023-03-31T06:25:59;99196.44;;;10.59;85.25
9141;BME280;46330;50.822;7.126;2023-03-31T06:28:28;99189.41;;;10.61;85.32
9141;BME280;46330;50.822;7.126;2023-03-31T06:31:00;99183.38;;;10.59;84.74
9141;BME280;46330;50.822;7.126;2023-03-31T06:33:29;99185.03;;;10.61;85.30
9141;BME280;46330;50.822;7.126;2023-03-31T06:35:57;99179.84;;;10.60;85.15
9141;BME280;46330;50.822;7.126;2023-03-31T06:38:29;99166.72;;;10.61;84.52
9141;BME280;46330;50.822;7.126;2023-03-31T06:40:56;99161.63;;;10.58;85.24
9141;BME280;46330;50.822;7.126;2023-03-31T06:43:24;99165.75;;;10.64;85.39
9141;BME280;46330;50.822;7.126;2023-03-31T06:45:53;99171.22;;;10.58;84.16
9141;BME280;46330;50.822;7.126;2023-03-31T06:48:23;99165.78;;;10.62;84.78
9141;BME280;46330;50.822;7.126;2023-03-31T06:50:52;99160.38;;;10.67;85.08
9141;BME280;46330;50.822;7.126;2023-03-31T06:53:20;99164.03;;;10.63;85.26
9141;BME280;46330;50.822;7.126;2023-03-31T06:55:50;99148.22;;;10.66;85.61
9141;BME280;46330;50.822;7.126;2023-03-31T06:58:18;99157.63;;;10.70;85.60
9141;BME280;46330;50.822;7.126;2023-03-31T07:00:46;99157.22;;;10.79;85.34
9141;BME280;46330;50.822;7.126;2023-03-31T07:03:15;99159.63;;;10.84;85.24
9141;BME280;46330;50.822;7.126;2023-03-31T07:05:47;99163.47;;;10.95;85.84
9141;BME280;46330;50.822;7.126;2023-03-31T07:08:15;99152.88;;;10.98;85.64
9141;BME280;46330;50.822;7.126;2023-03-31T07:10:44;99143.91;;;11.04;84.74
9141;BME280;46330;50.822;7.126;2023-03-31T07:13:16;99152.81;;;11.18;84.60
9141;BME280;46330;50.822;7.126;2023-03-31T07:15:46;99151.00;;;11.58;84.30
9141;BME280;46330;50.822;7.126;2023-03-31T07:18:15;99140.94;;;11.67;83.73
9141;BME280;46330;50.822;7.126;2023-03-31T07:20:47;99147.66;;;11.54;83.81
9141;BME280;46330;50.822;7.126;2023-03-31T07:23:15;99136.25;;;11.55;83.87
9141;BME280;46330;50.822;7.126;2023-03-31T07:25:43;99136.53;;;11.49;84.52
9141;BME280;46330;50.822;7.126;2023-03-31T07:28:11;99130.38;;;11.50;85.46
9141;BME280;46330;50.822;7.126;2023-03-31T07:30:40;99137.97;;;11.38;87.04
9141;BME280;46330;50.822;7.126;2023-03-31T07:33:08;99130.63;;;11.46;87.32
9141;BME280;46330;50.822;7.126;2023-03-31T07:35:37;99123.44;;;11.49;86.30
9141;BME280;46330;50.822;7.126;2023-03-31T07:38:07;99121.75;;;11.67;85.47
9141;BME280;46330;50.822;7.126;2023-03-31T07:40:35;99135.28;;;11.76;84.36
9141;BME280;46330;50.822;7.126;2023-03-31T07:43:03;99123.66;;;11.82;84.45
9141;BME280;46330;50.822;7.126;2023-03-31T07:45:31;99119.38;;;11.98;83.56
9141;BME280;46330;50.822;7.126;2023-03-31T07:48:00;99122.78;;;12.84;82.01
9141;BME280;46330;50.822;7.126;2023-03-31T07:50:28;99123.50;;;13.04;79.98
9141;BME280;46330;50.822;7.126;2023-03-31T07:52:58;99130.84;;;13.45;77.17
9141;BME280;46330;50.822;7.126;2023-03-31T07:55:26;99123.38;;;13.22;75.80
9141;BME280;46330;50.822;7.126;2023-03-31T07:57:53;99133.63;;;13.58;74.17
9141;BME280;46330;50.822;7.126;2023-03-31T08:00:22;99135.84;;;13.66;73.89
9141;BME280;46330;50.822;7.126;2023-03-31T08:02:50;99124.06;;;13.10;75.03
9141;BME280;46330;50.822;7.126;2023-03-31T08:05:19;99131.69;;;12.98;75.43
9141;BME280;46330;50.822;7.126;2023-03-31T08:07:48;99117.13;;;12.92;75.88
9141;BME280;46330;50.822;7.126;2023-03-31T08:10:20;99107.28;;;12.95;76.15
9141;BME280;46330;50.822;7.126;2023-03-31T08:12:48;99100.72;;;13.04;75.14
9141;BME280;46330;50.822;7.126;2023-03-31T08:15:16;99088.81;;;13.30;75.72
9141;BME280;46330;50.822;7.126;2023-03-31T08:17:44;99097.13;;;13.38;75.06
9141;BME280;46330;50.822;7.126;2023-03-31T08:20:12;99097.47;;;13.48;74.60
9141;BME280;46330;50.822;7.126;2023-03-31T08:22:41;99089.00;;;14.04;72.86
9141;BME280;46330;50.822;7.126;2023-03-31T08:25:09;99081.50;;;14.41;70.97
9141;BME280;46330;50.822;7.126;2023-03-31T08:27:39;99081.78;;;14.37;70.33
9141;BME280;46330;50.822;7.126;2023-03-31T08:30:09;99082.56;;;13.93;71.05
9141;BME280;46330;50.822;7.126;2023-03-31T08:32:37;99085.63;;;13.86;72.52
9141;BME280;46330;50.822;7.126;2023-03-31T08:35:06;99086.00;;;13.64;72.81
9141;BME280;46330;50.822;7.126;2023-03-31T08:37:35;99082.97;;;13.25;73.52
9141;BME280;46330;50.822;7.126;2023-03-31T08:40:06;99084.13;;;13.04;74.99
9141;BME280;46330;50.822;7.126;2023-03-31T08:42:38;99079.50;;;13.09;72.97
9141;BME280;46330;50.822;7.126;2023-03-31T08:45:12;99096.69;;;13.14;72.43
9141;BME280;46330;50.822;7.126;2023-03-31T08:47:43;99076.63;;;13.13;71.73
9141;BME280;46330;50.822;7.126;2023-03-31T08:50:14;99082.28;;;13.37;70.36
9141;BME280;46330;50.822;7.126;2023-03-31T08:52:48;99066.63;;;13.67;71.01
9141;BME280;46330;50.822;7.126;2023-03-31T08:55:22;99067.78;;;14.07;68.88
9141;BME280;46330;50.822;7.126;2023-03-31T08:57:55;99068.47;;;14.24;67.29
9141;BME280;46330;50.822;7.126;2023-03-31T09:00:30;99060.75;;;14.07;68.31
9141;BME280;46330;50.822;7.126;2023-03-31T09:03:04;99053.69;;;13.78;67.72
9141;BME280;46330;50.822;7.126;2023-03-31T09:05:43;99058.66;;;13.82;68.86
9141;BME280;46330;50.822;7.126;2023-03-31T09:08:35;99059.03;;;13.76;69.01
9141;BME280;46330;50.822;7.126;2023-03-31T09:11:12;99058.34;;;13.88;68.64
9141;BME280;46330;50.822;7.126;2023-03-31T09:16:36;99046.94;;;14.18;68.71
9141;BME280;46330;50.822;7.126;2023-03-31T09:19:13;99040.72;;;14.34;67.74
9141;BME280;46330;50.822;7.126;2023-03-31T09:21:43;99044.22;;;14.35;67.28
9141;BME280;46330;50.822;7.126;2023-03-31T09:24:16;99028.38;;;14.91;66.28
9141;BME280;46330;50.822;7.126;2023-03-31T09:26:50;99033.03;;;14.74;65.37
9141;BME280;46330;50.822;7.126;2023-03-31T09:29:21;99030.75;;;14.96;65.51
9141;BME280;46330;50.822;7.126;2023-03-31T09:31:52;99022.50;;;14.88;65.78
9141;BME280;46330;50.822;7.126;2023-03-31T09:34:24;99023.88;;;14.79;64.98
9141;BME280;46330;50.822;7.126;2023-03-31T09:36:53;99027.41;;;14.66;64.83
9141;BME280;46330;50.822;7.126;2023-03-31T09:39:21;99015.09;;;14.66;65.55
9141;BME280;46330;50.822;7.126;2023-03-31T09:41:51;99009.34;;;14.60;65.36
9141;BME280;46330;50.822;7.126;2023-03-31T09:44:26;99015.16;;;14.65;64.71
9141;BME280;46330;50.822;7.126;2023-03-31T09:46:54;99013.09;;;14.84;63.82
9141;BME280;46330;50.822;7.126;2023-03-31T09:49:25;98999.88;;;14.98;65.05
9141;BME280;46330;50.822;7.126;2023-03-31T09:52:01;99003.06;;;14.62;62.94
9141;BME280;46330;50.822;7.126;2023-03-31T09:54:35;99002.84;;;14.93;63.57
9141;BME280;46330;50.822;7.126;2023-03-31T09:57:14;98992.44;;;15.72;60.95
9141;BME280;46330;50.822;7.126;2023-03-31T09:59:42;98990.38;;;16.28;57.63
9141;BME280;46330;50.822;7.126;2023-03-31T10:02:26;98980.72;;;15.76;57.60
9141;BME280;46330;50.822;7.126;2023-03-31T10:04:56;98989.88;;;15.71;59.52
9141;BME280;46330;50.822;7.126;2023-03-31T10:07:24;98988.06;;;15.44;59.84
9141;BME280;46330;50.822;7.126;2023-03-31T10:09:53;98986.00;;;15.23;58.26
9141;BME280;46330;50.822;7.126;2023-03-31T10:12:25;98982.16;;;14.87;60.80
9141;BME280;46330;50.822;7.126;2023-03-31T10:15:02;98986.75;;;14.84;60.67
9141;BME280;46330;50.822;7.126;2023-03-31T10:17:40;98986.31;;;14.77;61.18
9141;BME280;46330;50.822;7.126;2023-03-31T10:20:31;98988.31;;;14.60;63.51
9141;BME280;46330;50.822;7.126;2023-03-31T10:23:04;98995.38;;;14.29;65.54
9141;BME280;46330;50.822;7.126;2023-03-31T10:25:33;98983.38;;;14.25;67.12
9141;BME280;46330;50.822;7.126;2023-03-31T10:28:03;98982.28;;;14.43;66.47
9141;BME280;46330;50.822;7.126;2023-03-31T10:30:34;98984.72;;;14.75;64.43
9141;BME280;46330;50.822;7.126;2023-03-31T10:33:06;98981.81;;;14.51;62.43
9141;BME280;46330;50.822;7.126;2023-03-31T10:35:49;98986.88;;;14.40;62.88
9141;BME280;46330;50.822;7.126;2023-03-31T10:38:23;98984.72;;;14.61;66.27
9141;BME280;46330;50.822;7.126;2023-03-31T10:40:54;98985.22;;;14.53;69.21
9141;BME280;46330;50.822;7.126;2023-03-31T10:43:27;98987.94;;;14.08;67.73
9141;BME280;46330;50.822;7.126;2023-03-31T10:45:56;98987.03;;;14.09;68.90
9141;BME280;46330;50.822;7.126;2023-03-31T10:48:27;98980.78;;;13.81;66.39
9141;BME280;46330;50.822;7.126;2023-03-31T10:50:59;98993.47;;;13.59;65.93
9141;BME280;46330;50.822;7.126;2023-03-31T10:53:27;98986.00;;;13.22;67.58
9141;BME280;46330;50.822;7.126;2023-03-31T10:56:05;99002.69;;;13.21;69.34
9141;BME280;46330;50.822;7.126;2023-03-31T10:58:47;99013.84;;;13.24;71.31
9141;BME280;46330;50.822;7.126;2023-03-31T11:01:40;99029.16;;;13.01;77.25
9141;BME280;46330;50.822;7.126;2023-03-31T11:07:30;99008.47;;;12.30;87.16
9141;BME280;46330;50.822;7.126;2023-03-31T11:10:19;98995.84;;;12.21;85.87
9141;BME280;46330;50.822;7.126;2023-03-31T11:12:52;99004.13;;;12.14;86.67
9141;BME280;46330;50.822;7.126;2023-03-31T11:15:31;99005.31;;;12.41;85.94
9141;BME280;46330;50.822;7.126;2023-03-31T11:18:23;99008.41;;;12.32;85.55
9141;BME280;46330;50.822;7.126;2023-03-31T11:21:02;98986.91;;;12.08;80.52
9141;BME280;46330;50.822;7.126;2023-03-31T11:23:49;98987.19;;;12.04;83.80
9141;BME280;46330;50.822;7.126;2023-03-31T11:26:23;98977.94;;;11.97;78.40
9141;BME280;46330;50.822;7.126;2023-03-31T11:29:05;98971.25;;;12.24;80.04
9141;BME280;46330;50.822;7.126;2023-03-31T11:31:45;98976.63;;;12.38;75.68
9141;BME280;46330;50.822;7.126;2023-03-31T11:34:40;98962.59;;;12.70;75.24
9141;BME280;46330;50.822;7.126;2023-03-31T11:37:36;98961.19;;;13.12;73.79
9141;BME280;46330;50.822;7.126;2023-03-31T11:40:25;98957.53;;;13.14;74.34
9141;BME280;46330;50.822;7.126;2023-03-31T11:43:00;98959.16;;;13.32;74.35
9141;BME280;46330;50.822;7.126;2023-03-31T11:45:33;98962.69;;;13.31;73.89
9141;BME280;46330;50.822;7.126;2023-03-31T11:48:08;98958.56;;;13.57;73.38
9141;BME280;46330;50.822;7.126;2023-03-31T11:50:44;98951.09;;;13.79;71.51
9141;BME280;46330;50.822;7.126;2023-03-31T11:53:16;98954.19;;;13.42;71.72
9141;BME280;46330;50.822;7.126;2023-03-31T11:55:47;98957.31;;;13.48;73.21
9141;BME280;46330;50.822;7.126;2023-03-31T11:58:20;98955.72;;;13.46;72.54
9141;BME280;46330;50.822;7.126;2023-03-31T12:00:52;98948.75;;;13.45;73.45
9141;BME280;46330;50.822;7.126;2023-03-31T12:03:29;98957.84;;;13.39;72.91
9141;BME280;46330;50.822;7.126;2023-03-31T12:06:02;98954.84;;;13.16;73.51
9141;BME280;46330;50.822;7.126;2023-03-31T12:08:35;98955.88;;;13.43;74.38
9141;BME280;46330;50.822;7.126;2023-03-31T12:11:08;98935.81;;;13.72;75.66
9141;BME280;46330;50.822;7.126;2023-03-31T12:13:45;98940.38;;;13.68;74.94
9141;BME280;46330;50.822;7.126;2023-03-31T12:16:21;98927.44;;;13.79;75.15
9141;BME280;46330;50.822;7.126;2023-03-31T12:18:58;98924.19;;;13.76;73.88
9141;BME280;46330;50.822;7.126;2023-03-31T12:21:31;98924.25;;;13.74;73.25
9141;BME280;46330;50.822;7.126;2023-03-31T12:23:59;98918.38;;;13.99;74.30
9141;BME280;46330;50.822;7.126;2023-03-31T12:26:35;98919.94;;;13.73;68.83
9141;BME280;46330;50.822;7.126;2023-03-31T12:29:12;98920.59;;;13.63;67.59
9141;BME280;46330;50.822;7.126;2023-03-31T12:31:47;98917.25;;;13.45;64.69
9141;BME280;46330;50.822;7.126;2023-03-31T12:34:18;98919.34;;;13.54;64.43
9141;BME280;46330;50.822;7.126;2023-03-31T12:36:57;98924.56;;;13.70;63.45
9141;BME280;46330;50.822;7.126;2023-03-31T12:39:35;98916.06;;;13.51;63.47
9141;BME280;46330;50.822;7.126;2023-03-31T12:42:25;98908.66;;;13.57;63.83
9141;BME280;46330;50.822;7.126;2023-03-31T12:45:01;98904.22;;;13.58;64.78
9141;BME280;46330;50.822;7.126;2023-03-31T12:47:47;98904.47;;;13.69;64.63
9141;BME280;46330;50.822;7.126;2023-03-31T12:53:25;98896.69;;;14.10;64.68
9141;BME280;46330;50.822;7.126;2023-03-31T12:55:59;98886.00;;;14.41;64.91
9141;BME280;46330;50.822;7.126;2023-03-31T12:58:44;98890.47;;;14.11;64.43
9141;BME280;46330;50.822;7.126;2023-03-31T13:01:14;98883.25;;;14.14;65.18
9141;BME280;46330;50.822;7.126;2023-03-31T13:03:51;98872.22;;;14.64;65.86
9141;BME280;46330;50.822;7.126;2023-03-31T13:09:46;98869.53;;;14.23;66.27
9141;BME280;46330;50.822;7.126;2023-03-31T13:12:20;98853.97;;;13.92;67.25
9141;BME280;46330;50.822;7.126;2023-03-31T13:14:50;98856.59;;;14.34;66.68
9141;BME280;46330;50.822;7.126;2023-03-31T13:17:23;98855.81;;;14.32;67.51
9141;BME280;46330;50.822;7.126;2023-03-31T13:19:52;98877.06;;;14.01;71.58
9141;BME280;46330;50.822;7.126;2023-03-31T13:22:29;98892.06;;;13.27;78.83
9141;BME280;46330;50.822;7.126;2023-03-31T13:25:30;98889.06;;;12.72;87.30
9141;BME280;46330;50.822;7.126;2023-03-31T13:28:08;98889.91;;;12.25;87.15
9141;BME280;46330;50.822;7.126;2023-03-31T13:30:47;98879.78;;;12.51;89.07
9141;BME280;46330;50.822;7.126;2023-03-31T13:33:19;98872.94;;;12.48;88.82
9141;BME280;46330;50.822;7.126;2023-03-31T13:35:52;98883.31;;;12.65;88.40
9141;BME280;46330;50.822;7.126;2023-03-31T13:38:30;98873.72;;;12.95;87.13
9141;BME280;46330;50.822;7.126;2023-03-31T13:41:12;98876.41;;;13.25;85.97
9141;BME280;46330;50.822;7.126;2023-03-31T13:46:49;98870.84;;;13.74;82.97
9141;BME280;46330;50.822;7.126;2023-03-31T13:49:38;98867.09;;;13.92;83.11
9141;BME280;46330;50.822;7.126;2023-03-31T13:52:20;98863.44;;;14.09;80.88
9141;BME280;46330;50.822;7.126;2023-03-31T13:55:05;98862.44;;;13.97;78.48
9141;BME280;46330;50.822;7.126;2023-03-31T14:01:10;98859.69;;;14.13;77.82
9141;BME280;46330;50.822;7.126;2023-03-31T14:03:50;98857.81;;;14.29;78.31
9141;BME280;46330;50.822;7.126;2023-03-31T14:06:25;98860.94;;;14.07;76.23
9141;BME280;46330;50.822;7.126;2023-03-31T14:08:57;98853.28;;;14.17;78.04